createdAt,value
2018-06-01T00:02:23.993Z,67.60
2018-06-01T00:04:49.989Z,67.60
2018-06-01T00:07:16.006Z,67.20
2018-06-01T00:09:46.844Z,67.50
2018-06-01T00:12:13.571Z,67.90
2018-06-01T00:14:40.342Z,68.20
2018-06-01T00:17:06.333Z,68.20
2018-06-01T00:19:32.358Z,69.50
2018-06-01T00:21:59.101Z,70.10
2018-06-01T00:24:25.850Z,69.40
2018-06-01T00:26:52.726Z,69.20
2018-06-01T00:29:18.741Z,69.20
2018-06-01T00:31:44.756Z,69.10
2018-06-01T00:34:10.758Z,70.20
2018-06-01T00:36:37.508Z,69.60
2018-06-01T00:39:04.261Z,69.40
2018-06-01T00:41:30.257Z,69.30
2018-06-01T00:43:57.022Z,70.10
2018-06-01T00:46:23.018Z,70.00
2018-06-01T00:48:49.089Z,69.00
2018-06-01T00:51:15.072Z,68.10
2018-06-01T00:53:41.809Z,70.80
2018-06-01T00:56:07.787Z,70.80
2018-06-01T00:58:33.798Z,70.60
2018-06-01T01:00:59.799Z,71.00
2018-06-01T01:03:26.537Z,70.60
2018-06-01T01:05:52.529Z,70.50
2018-06-01T01:08:18.541Z,69.40
2018-06-01T01:10:44.535Z,69.10
2018-06-01T01:13:10.542Z,70.40
2018-06-01T01:15:36.544Z,71.70
2018-06-01T01:18:03.297Z,70.60
2018-06-01T01:20:30.042Z,70.30
2018-06-01T01:22:56.045Z,70.30
2018-06-01T01:25:22.775Z,70.40
2018-06-01T01:27:49.541Z,72.10
2018-06-01T01:30:16.282Z,71.90
2018-06-01T01:32:42.285Z,71.70
2018-06-01T01:35:09.043Z,70.10
2018-06-01T01:37:35.785Z,71.70
2018-06-01T01:40:02.530Z,71.30
2018-06-01T01:42:28.544Z,71.30
2018-06-01T01:44:54.610Z,71.30
2018-06-01T01:47:21.410Z,70.30
2018-06-01T01:49:52.468Z,70.20
2018-06-01T01:52:18.465Z,69.90
2018-06-01T01:54:45.297Z,72.20
2018-06-01T01:57:11.285Z,73.00
2018-06-01T01:59:37.290Z,71.30
2018-06-01T02:02:03.284Z,71.20
2018-06-01T02:04:30.033Z,71.30
2018-06-01T02:06:56.758Z,71.50
2018-06-01T02:09:23.527Z,72.10
2018-06-01T02:11:49.513Z,71.80
2018-06-01T02:14:15.522Z,73.90
2018-06-01T02:16:41.505Z,72.60
2018-06-01T02:19:07.513Z,71.60
2018-06-01T02:21:33.527Z,71.60
2018-06-01T02:24:00.285Z,72.40
2018-06-01T02:26:26.281Z,72.50
2018-06-01T02:28:53.042Z,71.40
2018-06-01T02:31:19.765Z,71.90
2018-06-01T02:33:46.507Z,72.40
2018-06-01T02:36:13.247Z,71.50
2018-06-01T02:38:39.300Z,71.50
2018-06-01T02:41:05.294Z,73.20
2018-06-01T02:43:32.064Z,73.70
2018-06-01T02:45:58.066Z,73.60
2018-06-01T02:48:24.090Z,72.80
2018-06-01T02:50:50.831Z,73.00
2018-06-01T02:53:17.598Z,73.90
2018-06-01T02:55:43.607Z,73.90
2018-06-01T02:58:09.589Z,74.60
2018-06-01T03:00:35.606Z,73.70
2018-06-01T03:03:01.588Z,73.30
2018-06-01T03:05:27.603Z,74.10
2018-06-01T03:07:53.719Z,73.30
2018-06-01T03:10:20.461Z,73.50
2018-06-01T03:12:47.186Z,74.60
2018-06-01T03:15:13.945Z,74.70
2018-06-01T03:17:40.003Z,74.60
2018-06-01T03:20:06.074Z,75.60
2018-06-01T03:22:32.812Z,74.80
2018-06-01T03:24:58.813Z,74.70
2018-06-01T03:27:24.802Z,74.70
2018-06-01T03:29:50.801Z,74.70
2018-06-01T03:32:17.525Z,75.50
2018-06-01T03:34:45.018Z,74.80
2018-06-01T03:37:11.006Z,74.80
2018-06-01T03:39:37.766Z,76.40
2018-06-01T03:42:04.510Z,77.70
2018-06-01T03:44:30.534Z,77.70
2018-06-01T03:46:56.537Z,76.80
2018-06-01T03:49:23.304Z,77.80
2018-06-01T03:51:49.300Z,77.70
2018-06-01T03:54:16.066Z,75.70
2018-06-01T03:56:42.061Z,75.70
2018-06-01T03:59:08.062Z,78.10
2018-06-01T04:01:34.046Z,78.60
2018-06-01T04:04:00.061Z,77.00
2018-06-01T04:06:26.068Z,78.10
2018-06-01T04:08:52.081Z,77.20
2018-06-01T04:11:18.078Z,77.50
2018-06-01T04:13:44.077Z,76.40
2018-06-01T04:16:10.360Z,78.20
2018-06-01T04:18:36.412Z,75.10
2018-06-01T04:21:02.425Z,76.90
2018-06-01T04:23:29.159Z,77.40
2018-06-01T04:25:55.901Z,75.40
2018-06-01T04:28:22.651Z,75.40
2018-06-01T04:30:48.661Z,75.50
2018-06-01T04:33:15.393Z,76.70
2018-06-01T04:35:42.153Z,77.80
2018-06-01T04:38:08.152Z,77.80
2018-06-01T04:40:34.226Z,76.30
2018-06-01T04:43:00.186Z,77.10
2018-06-01T04:45:27.691Z,77.40
2018-06-01T04:47:53.693Z,77.40
2018-06-01T04:50:20.466Z,79.00
2018-06-01T04:52:46.464Z,79.00
2018-06-01T04:55:13.205Z,77.50
2018-06-01T04:57:39.949Z,79.60
2018-06-01T05:00:06.796Z,78.90
2018-06-01T05:02:32.841Z,78.90
2018-06-01T05:04:58.881Z,78.60
2018-06-01T05:07:24.886Z,75.80
2018-06-01T05:09:50.885Z,76.00
2018-06-01T05:12:17.624Z,75.80
2018-06-01T05:14:44.364Z,77.50
2018-06-01T05:17:10.379Z,77.50
2018-06-01T05:19:37.145Z,75.20
2018-06-01T05:22:03.181Z,75.20
2018-06-01T05:24:29.176Z,75.50
2018-06-01T05:26:55.922Z,74.60
2018-06-01T05:29:21.913Z,74.60
2018-06-01T05:31:47.925Z,74.30
2018-06-01T05:34:13.901Z,73.60
2018-06-01T05:36:39.893Z,74.90
2018-06-01T05:39:05.894Z,76.10
2018-06-01T05:41:31.898Z,74.70
2018-06-01T05:43:57.889Z,76.00
2018-06-01T05:46:23.884Z,74.30
2018-06-01T05:48:49.909Z,74.70
2018-06-01T05:51:16.675Z,73.90
2018-06-01T05:53:42.678Z,73.50
2018-06-01T05:56:09.427Z,75.00
2018-06-01T05:58:36.175Z,76.30
2018-06-01T06:01:02.925Z,74.30
2018-06-01T06:03:28.913Z,74.30
2018-06-01T06:05:54.917Z,72.80
2018-06-01T06:08:20.914Z,73.00
2018-06-01T06:10:46.922Z,73.60
2018-06-01T06:13:12.912Z,72.30
2018-06-01T06:15:39.662Z,72.90
2018-06-01T06:18:06.398Z,73.60
2018-06-01T06:20:33.169Z,73.20
2018-06-01T06:22:59.180Z,73.20
2018-06-01T06:25:25.926Z,73.40
2018-06-01T06:27:52.673Z,72.90
2018-06-01T06:30:18.679Z,72.90
2018-06-01T06:32:45.425Z,72.30
2018-06-01T06:35:12.145Z,72.90
2018-06-01T06:37:38.921Z,73.30
2018-06-01T06:40:04.909Z,73.00
2018-06-01T06:42:31.664Z,72.60
2018-06-01T06:44:58.389Z,73.00
2018-06-01T06:47:25.149Z,74.00
2018-06-01T06:49:51.883Z,74.30
2018-06-01T06:52:18.633Z,76.80
2018-06-01T06:54:45.353Z,77.00
2018-06-01T06:57:12.094Z,76.50
2018-06-01T06:59:38.089Z,76.50
2018-06-01T07:02:04.094Z,76.60
2018-06-01T07:04:30.085Z,77.10
2018-06-01T07:06:56.090Z,77.10
2018-06-01T07:09:22.846Z,77.10
2018-06-01T07:11:49.605Z,77.50
2018-06-01T07:14:15.657Z,77.50
2018-06-01T07:16:41.669Z,76.50
2018-06-01T07:19:07.657Z,78.20
2018-06-01T07:21:34.413Z,77.30
2018-06-01T07:24:00.393Z,77.30
2018-06-01T07:26:26.404Z,75.90
2018-06-01T07:28:52.415Z,75.90
2018-06-01T07:31:18.442Z,75.90
2018-06-01T07:33:44.449Z,75.70
2018-06-01T07:36:10.451Z,76.50
2018-06-01T07:38:36.449Z,77.50
2018-06-01T07:41:03.200Z,75.40
2018-06-01T07:43:29.945Z,75.70
2018-06-01T07:45:55.967Z,75.80
2018-06-01T07:48:22.742Z,77.10
2018-06-01T07:50:48.746Z,77.20
2018-06-01T07:53:14.805Z,75.50
2018-06-01T07:55:40.797Z,76.10
2018-06-01T07:58:06.803Z,75.50
2018-06-01T08:00:33.529Z,76.50
2018-06-01T08:03:00.290Z,76.10
2018-06-01T08:05:26.414Z,76.10
2018-06-01T08:07:52.542Z,75.90
2018-06-01T08:10:18.534Z,76.20
2018-06-01T08:12:44.555Z,75.20
2018-06-01T08:15:10.541Z,75.70
2018-06-01T08:17:36.541Z,75.50
2018-06-01T08:20:02.572Z,77.10
2018-06-01T08:22:28.581Z,76.00
2018-06-01T08:24:55.302Z,76.10
2018-06-01T08:27:22.045Z,74.70
2018-06-01T08:29:48.782Z,74.80
2018-06-01T08:32:15.544Z,73.10
2018-06-01T08:34:42.265Z,75.60
2018-06-01T08:37:09.057Z,75.10
2018-06-01T08:39:35.044Z,75.00
2018-06-01T08:42:01.077Z,74.20
2018-06-01T08:44:27.073Z,72.70
2018-06-01T08:46:53.833Z,72.80
2018-06-01T08:49:20.561Z,72.40
2018-06-01T08:51:47.309Z,71.60
2018-06-01T08:54:14.058Z,72.50
2018-06-01T08:56:40.264Z,72.70
2018-06-01T08:59:06.340Z,72.00
2018-06-01T09:01:32.318Z,72.30
2018-06-01T09:03:59.057Z,72.30
2018-06-01T09:06:25.806Z,70.50
2018-06-01T09:08:52.557Z,70.70
2018-06-01T09:11:19.281Z,69.50
2018-06-01T09:13:46.052Z,70.00
2018-06-01T09:16:12.046Z,69.90
2018-06-01T09:18:38.784Z,70.00
2018-06-01T09:21:05.866Z,69.50
2018-06-01T09:23:31.901Z,69.50
2018-06-01T09:25:57.915Z,69.40
2018-06-01T09:28:23.957Z,67.90
2018-06-01T09:30:49.977Z,67.40
2018-06-01T09:33:15.971Z,66.80
2018-06-01T09:35:41.960Z,67.60
2018-06-01T09:38:07.969Z,66.40
2018-06-01T09:40:33.961Z,66.20
2018-06-01T09:43:00.160Z,65.50
2018-06-01T09:45:26.888Z,64.90
2018-06-01T09:47:53.629Z,65.30
2018-06-01T09:50:20.369Z,63.30
2018-06-01T09:52:46.393Z,63.30
2018-06-01T09:55:13.150Z,62.80
2018-06-01T09:57:39.898Z,62.80
2018-06-01T10:00:05.938Z,62.00
2018-06-01T10:02:31.941Z,63.30
2018-06-01T10:04:58.678Z,62.30
2018-06-01T10:07:25.420Z,61.70
2018-06-01T10:09:58.504Z,61.90
2018-06-01T10:12:25.285Z,61.80
2018-06-01T10:14:51.310Z,61.90
2018-06-01T10:17:17.297Z,62.40
2018-06-01T10:19:44.050Z,61.00
2018-06-01T10:22:10.037Z,60.80
2018-06-01T10:24:36.057Z,59.80
2018-06-01T10:27:03.529Z,60.00
2018-06-01T10:29:29.532Z,60.00
2018-06-01T10:31:55.525Z,59.40
2018-06-01T10:34:21.707Z,59.70
2018-06-01T10:36:48.441Z,59.70
2018-06-01T10:39:15.185Z,59.40
2018-06-01T10:41:41.925Z,59.80
2018-06-01T10:44:08.694Z,59.90
2018-06-01T10:46:34.706Z,60.00
2018-06-01T10:49:00.718Z,58.00
2018-06-01T10:51:27.440Z,57.70
2018-06-01T10:53:54.205Z,58.10
2018-06-01T10:56:21.015Z,58.10
2018-06-01T10:58:47.053Z,58.10
2018-06-01T11:01:13.066Z,57.30
2018-06-01T11:03:39.081Z,57.60
2018-06-01T11:06:05.066Z,56.90
2018-06-01T11:08:31.078Z,57.50
2018-06-01T11:10:57.166Z,58.90
2018-06-01T11:13:23.181Z,60.50
2018-06-01T11:15:49.157Z,59.90
2018-06-01T11:18:15.161Z,56.70
2018-06-01T11:20:41.176Z,58.30
2018-06-01T11:23:07.938Z,56.80
2018-06-01T11:25:33.929Z,56.90
2018-06-01T11:27:59.937Z,56.70
2018-06-01T11:30:25.933Z,55.80
2018-06-01T11:32:51.932Z,54.80
2018-06-01T11:35:17.962Z,54.80
2018-06-01T11:37:43.971Z,54.30
2018-06-01T11:40:10.714Z,52.60
2018-06-01T11:42:36.738Z,52.50
2018-06-01T11:45:03.606Z,50.70
2018-06-01T11:47:29.598Z,50.60
2018-06-01T11:49:56.350Z,49.10
2018-06-01T11:52:23.080Z,49.60
2018-06-01T11:54:49.850Z,49.00
2018-06-01T11:57:15.860Z,49.00
2018-06-01T11:59:42.609Z,47.70
2018-06-01T12:02:08.601Z,47.80
2018-06-01T12:04:35.378Z,48.00
2018-06-01T12:07:01.365Z,48.00
2018-06-01T12:09:27.401Z,48.30
2018-06-01T12:11:54.125Z,45.80
2018-06-01T12:14:20.153Z,45.80
2018-06-01T12:16:46.902Z,46.20
2018-06-01T12:19:13.692Z,44.40
2018-06-01T12:21:39.677Z,44.00
2018-06-01T12:24:06.487Z,45.50
2018-06-01T12:26:32.482Z,45.40
2018-06-01T12:28:58.477Z,45.30
2018-06-01T12:31:24.484Z,43.60
2018-06-01T12:33:51.233Z,43.90
2018-06-01T12:36:17.228Z,43.90
2018-06-01T12:38:43.261Z,43.50
2018-06-01T12:41:09.997Z,43.80
2018-06-01T12:43:36.728Z,44.90
2018-06-01T12:46:02.737Z,45.00
2018-06-01T12:48:28.729Z,44.10
2018-06-01T12:50:54.734Z,43.90
2018-06-01T12:53:20.751Z,43.30
2018-06-01T12:55:46.786Z,41.90
2018-06-01T12:58:12.769Z,41.10
2018-06-01T13:00:38.779Z,41.10
2018-06-01T13:03:04.769Z,40.30
2018-06-01T13:05:30.801Z,38.40
2018-06-01T13:07:56.801Z,37.40
2018-06-01T13:10:22.801Z,38.40
2018-06-01T13:12:49.529Z,39.70
2018-06-01T13:15:16.305Z,39.20
2018-06-01T13:17:43.061Z,39.20
2018-06-01T13:20:09.069Z,39.20
2018-06-01T13:22:35.049Z,37.50
2018-06-01T13:25:01.446Z,38.90
2018-06-01T13:27:27.973Z,40.90
2018-06-01T13:29:54.797Z,39.50
2018-06-01T13:32:21.529Z,39.00
2018-06-01T13:34:48.277Z,37.20
2018-06-01T13:37:15.022Z,37.10
2018-06-01T13:39:41.041Z,37.10
2018-06-01T13:42:07.774Z,38.10
2018-06-01T13:44:34.542Z,38.20
2018-06-01T13:47:00.554Z,38.10
2018-06-01T13:49:26.573Z,38.40
2018-06-01T13:51:53.316Z,36.90
2018-06-01T13:54:19.346Z,36.80
2018-06-01T13:56:45.386Z,37.50
2018-06-01T13:59:11.414Z,36.30
2018-06-01T14:01:37.417Z,35.60
2018-06-01T14:04:03.417Z,37.00
2018-06-01T14:06:30.173Z,37.90
2018-06-01T14:08:56.914Z,38.10
2018-06-01T14:11:22.978Z,38.10
2018-06-01T14:13:49.710Z,38.70
2018-06-01T14:16:15.709Z,37.90
2018-06-01T14:18:41.701Z,36.20
2018-06-01T14:21:07.721Z,37.30
2018-06-01T14:23:33.710Z,36.90
2018-06-01T14:25:59.793Z,36.50
2018-06-01T14:28:26.534Z,34.60
2018-06-01T14:30:53.284Z,35.00
2018-06-01T14:33:19.273Z,35.20
2018-06-01T14:35:45.281Z,36.10
2018-06-01T14:38:11.348Z,35.30
2018-06-01T14:40:38.169Z,35.40
2018-06-01T14:43:04.099Z,35.40
2018-06-01T14:45:30.861Z,33.40
2018-06-01T14:47:56.849Z,33.50
2018-06-01T14:50:22.867Z,33.10
2018-06-01T14:52:48.865Z,33.60
2018-06-01T14:55:14.883Z,33.80
2018-06-01T14:57:41.650Z,34.70
2018-06-01T15:00:09.218Z,33.30
2018-06-01T15:02:35.614Z,33.50
2018-06-01T15:05:01.626Z,32.70
2018-06-01T15:07:27.623Z,31.80
2018-06-01T15:09:54.393Z,31.60
2018-06-01T15:12:20.454Z,31.60
2018-06-01T15:14:47.231Z,33.60
2018-06-01T15:17:14.003Z,32.90
2018-06-01T15:19:40.345Z,32.90
2018-06-01T15:22:06.348Z,32.60
2018-06-01T15:24:32.567Z,30.10
2018-06-01T15:26:58.847Z,32.30
2018-06-01T15:29:25.701Z,31.10
2018-06-01T15:31:51.717Z,31.10
2018-06-01T15:34:17.710Z,31.60
2018-06-01T15:36:43.730Z,32.40
2018-06-01T15:39:09.729Z,31.90
2018-06-01T15:41:36.523Z,32.40
2018-06-01T15:44:02.524Z,32.40
2018-06-01T15:46:28.537Z,31.30
2018-06-01T15:48:54.584Z,32.10
2018-06-01T15:51:20.569Z,32.70
2018-06-01T15:53:46.574Z,33.50
2018-06-01T15:56:13.333Z,33.30
2018-06-01T15:58:39.533Z,33.20
2018-06-01T16:01:05.667Z,33.20
2018-06-01T16:03:32.419Z,35.00
2018-06-01T16:05:59.189Z,36.90
2018-06-01T16:08:25.237Z,36.80
2018-06-01T16:10:51.249Z,37.10
2018-06-01T16:13:17.258Z,36.70
2018-06-01T16:15:43.267Z,35.50
2018-06-01T16:18:09.273Z,37.90
2018-06-01T16:20:36.064Z,37.20
2018-06-01T16:23:02.074Z,37.20
2018-06-01T16:25:28.102Z,37.80
2018-06-01T16:27:54.117Z,37.20
2018-06-01T16:30:20.117Z,37.70
2018-06-01T16:32:46.870Z,38.60
2018-06-01T16:35:12.884Z,38.50
2018-06-01T16:37:39.633Z,38.30
2018-06-01T16:40:06.625Z,39.20
2018-06-01T16:42:32.643Z,39.10
2018-06-01T16:44:58.647Z,38.80
2018-06-01T16:47:24.661Z,39.80
2018-06-01T16:49:50.645Z,38.40
2018-06-01T16:52:16.649Z,38.90
2018-06-01T16:54:42.638Z,40.50
2018-06-01T16:57:08.640Z,39.30
2018-06-01T16:59:35.386Z,39.50
2018-06-01T17:02:01.373Z,39.60
2018-06-01T17:04:27.514Z,41.10
2018-06-01T17:06:54.264Z,40.10
2018-06-01T17:09:21.013Z,40.30
2018-06-01T17:11:47.739Z,41.70
2018-06-01T17:14:14.518Z,41.70
2018-06-01T17:16:40.517Z,41.60
2018-06-01T17:19:07.261Z,41.80
2018-06-01T17:21:34.005Z,42.10
2018-06-01T17:24:00.042Z,42.20
2018-06-01T17:26:26.061Z,41.30
2018-06-01T17:28:52.074Z,41.30
2018-06-01T17:31:18.082Z,40.40
2018-06-01T17:33:45.573Z,42.80
2018-06-01T17:36:11.559Z,42.80
2018-06-01T17:38:38.313Z,43.20
2018-06-01T17:41:05.085Z,43.80
2018-06-01T17:43:31.157Z,43.80
2018-06-01T17:45:57.145Z,41.60
2018-06-01T17:48:23.333Z,42.20
2018-06-01T17:50:50.077Z,42.00
2018-06-01T17:53:17.021Z,41.40
2018-06-01T17:55:43.765Z,42.10
2018-06-01T17:58:09.837Z,42.20
2018-06-01T18:00:35.845Z,42.60
2018-06-01T18:03:01.836Z,42.80
2018-06-01T18:05:28.576Z,43.50
2018-06-01T18:07:55.314Z,42.80
2018-06-01T18:10:22.077Z,43.50
2018-06-01T18:12:48.065Z,43.50
2018-06-01T18:15:14.853Z,46.40
2018-06-01T18:17:40.913Z,46.50
2018-06-01T18:20:06.953Z,47.50
2018-06-01T18:22:33.765Z,47.40
2018-06-01T18:24:59.851Z,47.40
2018-06-01T18:27:25.926Z,47.50
2018-06-01T18:29:51.965Z,48.80
2018-06-01T18:32:18.712Z,48.90
2018-06-01T18:34:45.445Z,48.80
2018-06-01T18:37:12.196Z,48.90
2018-06-01T18:39:39.925Z,50.30
2018-06-01T18:42:07.232Z,50.40
2018-06-01T18:44:33.641Z,50.50
2018-06-01T18:47:00.408Z,50.60
2018-06-01T18:49:26.448Z,50.50
2018-06-01T18:51:52.498Z,52.20
2018-06-01T18:54:18.910Z,52.00
2018-06-01T18:56:44.911Z,52.40
2018-06-01T18:59:11.730Z,54.60
2018-06-01T19:01:37.785Z,54.60
2018-06-01T19:04:04.050Z,55.40
2018-06-01T19:06:30.089Z,56.00
2018-06-01T19:08:56.156Z,56.40
2018-06-01T19:11:22.967Z,56.30
2018-06-01T19:13:49.034Z,56.20
2018-06-01T19:16:15.110Z,57.10
2018-06-01T19:18:41.212Z,57.50
2018-06-01T19:21:07.273Z,58.60
2018-06-01T19:23:33.344Z,58.90
2018-06-01T19:26:00.270Z,59.40
2018-06-01T19:28:27.078Z,60.30
2018-06-01T19:30:53.175Z,60.20
2018-06-01T19:33:19.194Z,58.80
2018-06-01T19:35:45.221Z,60.90
2018-06-01T19:38:11.269Z,61.10
2018-06-01T19:40:37.311Z,61.60
2018-06-01T19:43:05.084Z,62.70
2018-06-01T19:45:32.006Z,62.70
2018-06-01T19:47:58.113Z,62.70
2018-06-01T19:50:24.239Z,62.80
2018-06-01T19:52:50.267Z,62.60
2018-06-01T19:55:16.268Z,62.00
2018-06-01T19:57:42.497Z,63.00
2018-06-01T20:00:08.686Z,64.00
2018-06-01T20:02:34.750Z,66.10
2018-06-01T20:05:00.752Z,65.00
2018-06-01T20:07:27.501Z,65.80
2018-06-01T20:09:53.502Z,65.80
2018-06-01T20:12:20.270Z,66.20
2018-06-01T20:14:46.301Z,66.20
2018-06-01T20:17:12.312Z,66.40
2018-06-01T20:19:39.059Z,68.50
2018-06-01T20:22:05.056Z,68.50
2018-06-01T20:24:31.789Z,68.40
2018-06-01T20:26:57.793Z,67.60
2018-06-01T20:29:23.798Z,68.30
2018-06-01T20:31:49.797Z,69.30
2018-06-01T20:34:15.805Z,71.50
2018-06-01T20:36:42.713Z,69.80
2018-06-01T20:39:08.799Z,69.70
2018-06-01T20:41:34.796Z,69.50
2018-06-01T20:44:01.541Z,69.90
2018-06-01T20:46:28.411Z,70.10
2018-06-01T20:48:54.513Z,70.20
2018-06-01T20:51:21.289Z,69.10
2018-06-01T20:53:47.341Z,69.10
2018-06-01T20:56:13.500Z,69.30
2018-06-01T20:58:40.261Z,68.50
2018-06-01T21:01:06.999Z,67.70
2018-06-01T21:03:33.013Z,67.70
2018-06-01T21:05:59.013Z,67.80
2018-06-01T21:08:25.020Z,67.60
2018-06-01T21:10:51.041Z,67.70
2018-06-01T21:13:17.040Z,67.50
2018-06-01T21:15:43.030Z,67.40
2018-06-01T21:18:09.782Z,67.00
2018-06-01T21:20:35.834Z,67.00
2018-06-01T21:23:01.842Z,66.60
2018-06-01T21:25:27.824Z,65.80
2018-06-01T21:27:54.300Z,66.10
2018-06-01T21:30:21.281Z,65.90
2018-06-01T21:32:48.073Z,65.70
2018-06-01T21:35:14.066Z,65.70
2018-06-01T21:37:40.115Z,67.30
2018-06-01T21:40:06.854Z,66.60
2018-06-01T21:42:33.597Z,67.20
2018-06-01T21:45:00.130Z,67.10
2018-06-01T21:47:26.908Z,67.50
2018-06-01T21:49:52.937Z,67.50
2018-06-01T21:52:18.953Z,67.20
2018-06-01T21:54:44.997Z,67.20
2018-06-01T21:57:10.941Z,67.60
2018-06-01T21:59:36.956Z,67.20
2018-06-01T22:02:02.950Z,67.20
2018-06-01T22:04:28.950Z,67.20
2018-06-01T22:06:54.994Z,67.20
2018-06-01T22:09:21.270Z,68.40
2018-06-01T22:11:48.132Z,67.90
2018-06-01T22:14:14.879Z,67.50
2018-06-01T22:16:40.873Z,67.20
2018-06-01T22:19:06.908Z,67.20
2018-06-01T22:21:33.650Z,67.60
2018-06-01T22:24:00.395Z,67.80
2018-06-01T22:26:27.181Z,67.10
2018-06-01T22:28:53.185Z,67.10
2018-06-01T22:31:19.177Z,68.20
2018-06-01T22:33:45.176Z,69.00
2018-06-01T22:36:11.161Z,68.60
2018-06-01T22:38:37.169Z,68.80
2018-06-01T22:41:03.166Z,69.00
2018-06-01T22:43:29.174Z,69.20
2018-06-01T22:45:55.165Z,69.80
2018-06-01T22:48:21.193Z,69.10
2018-06-01T22:50:47.181Z,69.10
2018-06-01T22:53:13.921Z,69.20
2018-06-01T22:55:40.645Z,69.40
2018-06-01T22:58:06.638Z,69.40
2018-06-01T23:00:38.813Z,69.50
2018-06-01T23:03:04.818Z,69.40
2018-06-01T23:05:30.805Z,69.30
2018-06-01T23:07:56.809Z,70.00
2018-06-01T23:10:22.793Z,69.50
2018-06-01T23:12:48.776Z,69.80
2018-06-01T23:15:14.780Z,70.70
2018-06-01T23:17:40.794Z,70.50
2018-06-01T23:20:06.886Z,70.80
2018-06-01T23:22:33.653Z,70.90
2018-06-01T23:24:59.666Z,70.80
2018-06-01T23:27:25.654Z,70.60
2018-06-01T23:29:51.681Z,70.60
2018-06-01T23:32:17.701Z,71.10
2018-06-01T23:34:43.700Z,71.50
2018-06-01T23:37:10.432Z,72.00
2018-06-01T23:39:37.229Z,71.50
2018-06-01T23:42:03.230Z,71.60
2018-06-01T23:44:31.241Z,71.40
2018-06-01T23:46:57.320Z,71.80
2018-06-01T23:49:23.330Z,72.90
2018-06-01T23:51:50.060Z,72.70
2018-06-01T23:54:16.797Z,72.70
2018-06-01T23:56:43.521Z,72.80
2018-06-01T23:59:09.525Z,72.80
